Time;durP1;ratioP1;P1;durP2;ratioP2;P2;SDS_P1;SDS_P2;PMS_P1;PMS_P2;Temp;Humidity;BMP_temperature;BMP_pressure;BME280_temperature;BME280_humidity;BME280_pressure;Samples;Min_cycle;Max_cycle;Signal;HPM_P1;HPM_P2
2022/05/26 00:01:17;;;;;;;15.3;17;;;;;;;-133;100;65200;;;;
2022/05/26 00:11:17;;;;;;;15.3;17;;;;;;;-133;100;65210;;;;
2022/05/26 00:21:17;;;;;;;11.9;13.7;;;;;;;-133;100;65210;;;;
2022/05/26 00:31:17;;;;;;;11.9;13.7;;;;;;;-133;100;65210;;;;
2022/05/26 00:41:17;;;;;;;11.9;13.7;;;;;;;-133;100;65200;;;;
2022/05/26 00:52:17;;;;;;;9.9;12;;;;;;;-133;100;65210;;;;
2022/05/26 01:02:17;;;;;;;9.9;12;;;;;;;-133;100;65200;;;;
2022/05/26 01:13:17;;;;;;;9.9;12;;;;;;;-133;100;65200;;;;
2022/05/26 01:24:17;;;;;;;7.7;10.3;;;;;;;-133;100;65210;;;;
2022/05/26 01:34:17;;;;;;;7.7;10.3;;;;;;;-133;100;65210;;;;
2022/05/26 01:44:17;;;;;;;8;9.7;;;;;;;-133;100;65200;;;;
2022/05/26 01:54:17;;;;;;;8;9.7;;;;;;;-133;100;65200;;;;
2022/05/26 02:05:17;;;;;;;8;9.7;;;;;;;-133;100;65210;;;;
2022/05/26 02:15:17;;;;;;;6.8;9.1;;;;;;;-133;100;65200;;;;
2022/05/26 02:26:17;;;;;;;6.8;9.1;;;;;;;-133;100;65200;;;;
2022/05/26 02:37:17;;;;;;;6.8;9.1;;;;;;;-133;100;65210;;;;
2022/05/26 02:47:17;;;;;;;6.3;8.9;;;;;;;-133;100;65210;;;;
2022/05/26 02:57:17;;;;;;;6.3;8.9;;;;;;;-133;100;65200;;;;
2022/05/26 03:07:17;;;;;;;6.3;8.9;;;;;;;-133;100;65200;;;;
2022/05/26 03:18:17;;;;;;;5.4;7.4;;;;;;;-133;100;65200;;;;
2022/05/26 03:28:17;;;;;;;5.4;7.4;;;;;;;-133;100;65200;;;;
2022/05/26 03:49:17;;;;;;;6.6;8.9;;;;;;;-133;100;65200;;;;
2022/05/26 03:59:17;;;;;;;6.6;8.9;;;;;;;-133;100;65210;;;;
2022/05/26 04:09:17;;;;;;;6.6;8.9;;;;;;;-133;100;65210;;;;
2022/05/26 04:19:17;;;;;;;4.7;7;;;;;;;-133;100;65200;;;;
2022/05/26 04:29:17;;;;;;;4.7;7;;;;;;;-133;100;65200;;;;
2022/05/26 04:40:17;;;;;;;4.7;7;;;;;;;-133;100;65200;;;;
2022/05/26 04:51:18;;;;;;;5;8.6;;;;;;;-133;100;65200;;;;
2022/05/26 05:02:17;;;;;;;5;8.6;;;;;;;-133;100;65210;;;;
2022/05/26 05:13:17;;;;;;;2.6;4.9;;;;;;;-133;99;65200;;;;
2022/05/26 05:24:17;;;;;;;2.6;4.9;;;;;;;-133;97;65200;;;;
2022/05/26 05:34:17;;;;;;;2.6;4.9;;;;;;;-133;95.5;65200;;;;
2022/05/26 05:44:17;;;;;;;2.4;4.1;;;;;;;-133;93.9;65200;;;;
2022/05/26 05:55:17;;;;;;;2.4;4.1;;;;;;;-133;92.5;65200;;;;
2022/05/26 06:05:17;;;;;;;2.4;4.1;;;;;;;-133;91;65200;;;;
2022/05/26 06:15:18;;;;;;;2.4;5;;;;;;;-133;88.6;65200;;;;
2022/05/26 06:26:17;;;;;;;2.4;5;;;;;;;-133;87.1;65200;;;;
2022/05/26 06:37:22;;;;;;;2.4;5;;;;;;;-133;85.7;65200;;;;
2022/05/26 06:47:17;;;;;;;2.9;6.1;;;;;;;-133;83.2;65200;;;;
2022/05/26 06:58:17;;;;;;;2.9;6.1;;;;;;;-133;83.2;65190;;;;
2022/05/26 07:08:17;;;;;;;2.9;6.1;;;;;;;-133;82.3;65200;;;;
2022/05/26 07:19:17;;;;;;;4.2;7.1;;;;;;;-133;76.9;65200;;;;
2022/05/26 07:29:17;;;;;;;4.2;7.1;;;;;;;-133;77.3;65200;;;;
2022/05/26 07:41:22;;;;;;;4.2;7.1;;;;;;;-133;74.7;65200;;;;
2022/05/26 07:51:19;;;;;;;2.7;5.1;;;;;;;-133;71.5;65200;;;;
2022/05/26 08:01:17;;;;;;;2.7;5.1;;;;;;;-133;70;65200;;;;
2022/05/26 08:12:17;;;;;;;2.7;5.1;;;;;;;-133;67.4;65190;;;;
2022/05/26 08:22:17;;;;;;;2.5;4.9;;;;;;;-133;63.3;65200;;;;
2022/05/26 08:32:17;;;;;;;2.5;4.9;;;;;;;-133;60.8;65190;;;;
2022/05/26 08:43:17;;;;;;;2.2;3.9;;;;;;;-133;59.7;65190;;;;
2022/05/26 08:54:17;;;;;;;2.2;3.9;;;;;;;-133;58.3;65190;;;;
2022/05/26 09:04:17;;;;;;;2.2;3.9;;;;;;;-133;58;65190;;;;
2022/05/26 09:14:17;;;;;;;1.8;4.8;;;;;;;-133;54.2;65180;;;;
2022/05/26 09:25:18;;;;;;;1.8;4.8;;;;;;;-133;54;65190;;;;
2022/05/26 09:35:17;;;;;;;1.8;4.8;;;;;;;-133;50.8;65180;;;;
2022/05/26 09:45:19;;;;;;;1.7;6;;;;;;;-133;50.9;65180;;;;
2022/05/26 09:55:17;;;;;;;1.7;6;;;;;;;-133;46.6;65180;;;;
2022/05/26 10:05:17;;;;;;;1.7;6;;;;;;;-133;47.2;65180;;;;
2022/05/26 10:16:17;;;;;;;1.7;8.2;;;;;;;-133;44;65180;;;;
2022/05/26 10:26:17;;;;;;;1.7;8.2;;;;;;;-133;43.5;65180;;;;
2022/05/26 10:37:17;;;;;;;1.7;8.2;;;;;;;-133;43.7;65180;;;;
2022/05/26 10:48:17;;;;;;;1.1;4;;;;;;;-133;42.6;65180;;;;
2022/05/26 10:59:17;;;;;;;1.1;4;;;;;;;-133;42.9;65180;;;;
2022/05/26 11:09:17;;;;;;;1.1;4;;;;;;;-133;42.5;65180;;;;
2022/05/26 11:20:17;;;;;;;1.4;5;;;;;;;-133;43.2;65180;;;;
2022/05/26 11:40:17;;;;;;;1.4;5;;;;;;;-133;44.4;65180;;;;
2022/05/26 11:50:17;;;;;;;1.5;3.8;;;;;;;-133;43.4;65180;;;;
2022/05/26 12:01:19;;;;;;;1.5;3.8;;;;;;;-133;43.7;65180;;;;
2022/05/26 12:12:17;;;;;;;1.5;3.8;;;;;;;-133;45.9;65180;;;;
2022/05/26 12:23:17;;;;;;;1.3;3.8;;;;;;;-133;45.6;65180;;;;
2022/05/26 12:33:18;;;;;;;1.3;3.8;;;;;;;-133;44.4;65190;;;;
2022/05/26 12:43:17;;;;;;;1.4;4.6;;;;;;;-133;45.9;65180;;;;
2022/05/26 12:53:17;;;;;;;1.4;4.6;;;;;;;-133;46.7;65190;;;;
2022/05/26 13:04:17;;;;;;;1.4;4.6;;;;;;;-133;46;65190;;;;
2022/05/26 13:14:17;;;;;;;1.1;3.3;;;;;;;-133;46.1;65190;;;;
2022/05/26 13:24:17;;;;;;;1.1;3.3;;;;;;;-133;47.5;65190;;;;
2022/05/26 13:34:17;;;;;;;1.1;3.3;;;;;;;-133;49;65190;;;;
2022/05/26 13:45:17;;;;;;;1.8;4.9;;;;;;;-133;49.6;65190;;;;
2022/05/26 13:55:17;;;;;;;1.8;4.9;;;;;;;-133;49.9;65200;;;;
2022/05/26 14:05:17;;;;;;;1.8;4.9;;;;;;;-133;49.8;65200;;;;
2022/05/26 14:16:17;;;;;;;1.7;4;;;;;;;-133;48.3;65200;;;;
2022/05/26 14:26:17;;;;;;;1.7;4;;;;;;;-133;50;65200;;;;
2022/05/26 14:37:17;;;;;;;1.7;4;;;;;;;-133;48.9;65200;;;;
2022/05/26 14:47:18;;;;;;;1.5;3.7;;;;;;;-133;51.1;65200;;;;
2022/05/26 14:57:17;;;;;;;1.5;3.7;;;;;;;-133;49.1;65200;;;;
2022/05/26 15:08:19;;;;;;;1.5;3.7;;;;;;;-133;43.5;65200;;;;
2022/05/26 15:18:17;;;;;;;1.3;4.9;;;;;;;-133;44.4;65200;;;;
2022/05/26 15:28:17;;;;;;;1.3;4.9;;;;;;;-133;36.9;65200;;;;
2022/05/26 15:39:17;;;;;;;1.3;4.9;;;;;;;-133;36.4;65200;;;;
2022/05/26 15:50:17;;;;;;;0.9;3.5;;;;;;;-133;40;65210;;;;
2022/05/26 16:00:17;;;;;;;0.9;3.5;;;;;;;-133;42.8;65210;;;;
2022/05/26 16:10:17;;;;;;;0.9;3.5;;;;;;;-133;44.4;65210;;;;
2022/05/26 16:21:17;;;;;;;1;3;;;;;;;-133;45.4;65210;;;;
2022/05/26 16:31:17;;;;;;;1;3;;;;;;;-133;39.3;65210;;;;
2022/05/26 16:42:18;;;;;;;1;3;;;;;;;-133;42.6;65210;;;;
2022/05/26 16:52:17;;;;;;;1.1;4.1;;;;;;;-133;46.1;65210;;;;
2022/05/26 17:02:17;;;;;;;1.1;4.1;;;;;;;-133;47.8;65210;;;;
2022/05/26 17:23:18;;;;;;;1.2;3.5;;;;;;;-133;49.4;65210;;;;
2022/05/26 17:34:17;;;;;;;1.2;3.5;;;;;;;-133;50.5;65220;;;;
2022/05/26 17:45:18;;;;;;;1.2;3.6;;;;;;;-133;51.8;65220;;;;
2022/05/26 17:55:17;;;;;;;1.2;3.6;;;;;;;-133;53.4;65220;;;;
2022/05/26 18:05:17;;;;;;;1.2;3.6;;;;;;;-133;54.3;65220;;;;
2022/05/26 18:16:17;;;;;;;1.7;4.7;;;;;;;-133;55.6;65220;;;;
2022/05/26 18:27:17;;;;;;;1.7;4.7;;;;;;;-133;56.4;65220;;;;
2022/05/26 18:38:17;;;;;;;1.7;4.7;;;;;;;-133;58;65220;;;;
2022/05/26 18:48:17;;;;;;;2;5.4;;;;;;;-133;60;65220;;;;
2022/05/26 18:59:17;;;;;;;2;5.4;;;;;;;-133;60.9;65220;;;;
2022/05/26 19:09:17;;;;;;;2;5.4;;;;;;;-133;63.4;65220;;;;
2022/05/26 19:19:17;;;;;;;2.3;5.6;;;;;;;-133;65.2;65220;;;;
2022/05/26 19:29:18;;;;;;;2.3;5.6;;;;;;;-133;64.8;65230;;;;
2022/05/26 19:39:17;;;;;;;2.3;5.6;;;;;;;-133;65.3;65220;;;;
2022/05/26 19:50:17;;;;;;;1.9;4.9;;;;;;;-133;65.6;65230;;;;
2022/05/26 20:00:17;;;;;;;1.9;4.9;;;;;;;-133;65.8;65220;;;;
2022/05/26 20:10:18;;;;;;;1.9;4.9;;;;;;;-133;65.5;65230;;;;
2022/05/26 20:20:18;;;;;;;2.1;5.3;;;;;;;-133;66;65230;;;;
2022/05/26 20:30:17;;;;;;;2.1;5.3;;;;;;;-133;66.3;65230;;;;
2022/05/26 20:41:17;;;;;;;2.1;5.3;;;;;;;-133;67;65230;;;;
2022/05/26 20:51:17;;;;;;;2.7;6.1;;;;;;;-133;68.2;65230;;;;
2022/05/26 21:01:18;;;;;;;2.7;6.1;;;;;;;-133;68.2;65230;;;;
2022/05/26 21:11:17;;;;;;;2.7;6.1;;;;;;;-133;68.8;65230;;;;
2022/05/26 21:21:18;;;;;;;2.1;7;;;;;;;-133;69.7;65230;;;;
2022/05/26 21:32:17;;;;;;;2.1;7;;;;;;;-133;68.8;65230;;;;
2022/05/26 21:42:17;;;;;;;2.1;7;;;;;;;-133;68.3;65230;;;;
2022/05/26 21:52:17;;;;;;;1.9;4.2;;;;;;;-133;68;65230;;;;
2022/05/26 22:03:17;;;;;;;1.9;4.2;;;;;;;-133;69.1;65230;;;;
2022/05/26 22:13:17;;;;;;;1.6;3.8;;;;;;;-133;69.2;65230;;;;
2022/05/26 22:23:18;;;;;;;1.6;3.8;;;;;;;-133;69.1;65230;;;;
2022/05/26 22:33:17;;;;;;;1.6;3.8;;;;;;;-133;68.6;65230;;;;
2022/05/26 22:43:18;;;;;;;1.2;3;;;;;;;-133;68.8;65230;;;;
2022/05/26 22:53:18;;;;;;;1.2;3;;;;;;;-133;68.6;65230;;;;
2022/05/26 23:04:17;;;;;;;1.2;3;;;;;;;-133;68.3;65230;;;;
2022/05/26 23:14:18;;;;;;;1.1;3.1;;;;;;;-133;68.4;65220;;;;
2022/05/26 23:24:18;;;;;;;1.1;3.1;;;;;;;-133;69.6;65220;;;;
2022/05/26 23:34:18;;;;;;;1.1;3.1;;;;;;;-133;70;65230;;;;
2022/05/26 23:45:18;;;;;;;1.1;2.5;;;;;;;-133;70.8;65230;;;;
2022/05/26 23:55:18;;;;;;;1.1;2.5;;;;;;;-133;71.7;65230;;;;
